Home > Products > Valid Products > MTR

000
SAUS44 KLCH 210154
MTRP92
METAR KP92 210153Z AUTO 00000KT 21/15 A3000 RMK AO1 SLP158 T02060150





000
SAUS44 KLCH 210055
MTRP92
METAR KP92 210053Z AUTO 01003KT 22/15 A3000 RMK AO1 SLP157 T02170150





000
SAUS44 KLCH 202354
MTRP92
METAR KP92 202353Z AUTO 00000KT 22/16 A2999 RMK AO1 SLP154 T02220161
10278 20222 53004





000
SAUS44 KLCH 202255
MTRP92
METAR KP92 202253Z AUTO 00000KT 26/16 A2998 RMK AO1 SLP150 T02560156





000
SAUS44 KLCH 202255
MTRP92
METAR KP92 202253Z AUTO 00000KT 26/16 A2998 RMK AO1 SLP150 T02560156





000
SAUS44 KLCH 202154
MTRP92
METAR KP92 202153Z AUTO VRB03KT 27/15 A2997 RMK AO1 SLP149 T02720150





000
SAUS44 KLCH 202154
MTRP92
METAR KP92 202153Z AUTO VRB03KT 27/15 A2997 RMK AO1 SLP149 T02720150





000
SAUS44 KLCH 202055
MTRP92
METAR KP92 202053Z AUTO 00000KT 26/18 A2998 RMK AO1 SLP150 T02610178
56016





000
SAUS44 KLCH 201955
MTRP92
METAR KP92 201953Z AUTO 00000KT 26/17 A2998 RMK AO1 SLP153 T02610167





000
SAUS44 KLCH 201854
MTRP92
METAR KP92 201853Z AUTO VRB03KT 27/15 A3000 RMK AO1 SLP157 T02720150





000
SAUS44 KLCH 201754
MTRP92
METAR KP92 201753Z AUTO VRB04KT 26/15 A3002 RMK AO1 SLP166 60001
T02610150 10261 20167 58008





000
SAUS44 KLCH 201654
MTRP92
METAR KP92 201653Z AUTO 14005KT 25/16 A3005 RMK AO1 SLP174 T02500156





000
SAUS44 KLCH 201555
MTRP92
METAR KP92 201553Z AUTO VRB04KT 24/16 A3006 RMK AO1 SLP178 T02440161





000
SAUS44 KLCH 201454
MTRP92
METAR KP92 201453Z AUTO VRB03KT 22/16 A3005 RMK AO1 SLP174 P0001
60001 T02220161 51010





000
SAUS44 KLCH 201354
MTRP92
METAR KP92 201353Z AUTO VRB04KT 20/16 A3004 RMK AO1 SLP172 T02000161





000
SAUS44 KLCH 201254
MTRP92
METAR KP92 201253Z AUTO VRB03KT 17/16 A3003 RMK AO1 SLP169 T01720156





000
SAUS44 KLCH 201154
MTRP92
METAR KP92 201153Z AUTO 00000KT 17/16 A3002 RMK AO1 SLP164 T01670156
10194 20167 50002





000
SAUS44 KLCH 201054
MTRP92
METAR KP92 201053Z AUTO 00000KT 17/15 A3002 RMK AO1 SLP164 T01720150





000
SAUS44 KLCH 201054
MTRP92
METAR KP92 201053Z AUTO 00000KT 17/15 A3002 RMK AO1 SLP164 T01720150





000
SAUS44 KLCH 200954
MTRP92
METAR KP92 200953Z AUTO 00000KT 17/16 A3001 RMK AO1 SLP162 T01720161





000
SAUS44 KLCH 200954
MTRP92
METAR KP92 200953Z AUTO 00000KT 17/16 A3001 RMK AO1 SLP162 T01720161





000
SAUS44 KLCH 200855
MTRP92
METAR KP92 200853Z AUTO 00000KT 18/17 A3001 RMK AO1 SLP162 T01780167
58009





000
SAUS44 KLCH 200755
MTRP92
METAR KP92 200753Z AUTO 00000KT 18/17 A3002 RMK AO1 SLP167 T01830167





000
SAUS44 KLCH 200755
MTRP92
METAR KP92 200753Z AUTO 00000KT 18/17 A3002 RMK AO1 SLP167 T01830167





000
SAUS44 KLCH 200655
MTRP92
METAR KP92 200653Z AUTO 00000KT 18/17 A3004 RMK AO1 SLP172 T01830167





000
SAUS44 KLCH 200554
MTRP92
METAR KP92 200553Z AUTO 00000KT 19/17 A3004 RMK AO1 SLP171 T01890167
10233 20189 402670178 58006





000
SAUS44 KLCH 200454
MTRP92
METAR KP92 200453Z AUTO 00000KT 19/17 A3005 RMK AO1 SLP174 T01940167





000
SAUS44 KLCH 200354
MTRP92
METAR KP92 200353Z AUTO 00000KT 20/17 A3006 RMK AO1 SLP178 T02000167





000
SAUS44 KLCH 200254
MTRP92
METAR KP92 200253Z AUTO 00000KT 20/17 A3005 RMK AO1 SLP177 T02000172
51008





000
SAUS44 KLCH 200154
MTRP92
METAR KP92 200153Z AUTO 00000KT 21/17 A3005 RMK AO1 SLP175 T02060172





000
SAUS44 KLCH 200054
MTRP92
METAR KP92 200053Z AUTO 00000KT 22/17 A3004 RMK AO1 SLP173 T02170172





000
SAUS44 KLCH 192354
MTRP92
METAR KP92 192353Z AUTO 00000KT 23/18 A3003 RMK AO1 SLP169 T02330178
10267 20233 53002





000
SAUS44 KLCH 192354
MTRP92
METAR KP92 192353Z AUTO 00000KT 23/18 A3003 RMK AO1 SLP169 T02330178
10267 20233 53002





000
SAUS44 KLCH 192254
MTRP92
METAR KP92 192253Z AUTO 00000KT 26/18 A3002 RMK AO1 SLP166 T02560178





000
SAUS44 KLCH 192254
MTRP92
METAR KP92 192253Z AUTO 00000KT 26/18 A3002 RMK AO1 SLP166 T02560178





000
SAUS44 KLCH 192155
MTRP92
METAR KP92 192153Z AUTO 01003KT 27/17 A3002 RMK AO1 SLP165 T02670167





000
SAUS44 KLCH 192054
MTRP92
METAR KP92 192053Z AUTO 00000KT 26/17 A3002 RMK AO1 SLP166 T02610167
56016





000
SAUS44 KLCH 191954
MTRP92
METAR KP92 191953Z AUTO VRB03KT 27/17 A3003 RMK AO1 SLP169 T02670167





000
SAUS44 KLCH 191855
MTRP92
METAR KP92 191853Z AUTO 00000KT 26/17 A3005 RMK AO1 SLP175 T02610167





000
SAUS44 KLCH 191754
MTRP92
METAR KP92 191753Z AUTO VRB03KT 26/16 A3007 RMK AO1 SLP182 T02560161
10256 20178 58004





000
SAUS44 KLCH 191654
MTRP92
METAR KP92 191653Z AUTO VRB05KT 24/16 A3009 RMK AO1 SLP188 T02440156





000
SAUS44 KLCH 191554
MTRP92
METAR KP92 191553Z AUTO VRB06KT 23/15 A3009 RMK AO1 SLP189 T02280150





000
SAUS44 KLCH 191454
MTRP92
METAR KP92 191453Z AUTO VRB06KT 21/15 A3008 RMK AO1 SLP187 T02110150
51013





000
SAUS44 KLCH 191354
MTRP92
METAR KP92 191353Z AUTO VRB06KT 19/14 A3007 RMK AO1 SLP183 T01940144





000
SAUS44 KLCH 191254
MTRP92
METAR KP92 191253Z AUTO VRB04KT 18/14 A3006 RMK AO1 SLP180 T01780144





000
SAUS44 KLCH 191155
MTRP92
METAR KP92 191153Z AUTO VRB05KT 18/15 A3005 RMK AO1 SLP174 70002
T01830150 10217 20183 53005





000
SAUS44 KLCH 191054
MTRP92
METAR KP92 191053Z AUTO VRB03KT 18/15 A3004 RMK AO1 SLP172 T01830150





000
SAUS44 KLCH 190954
MTRP92
METAR KP92 190953Z AUTO VRB04KT 19/16 A3003 RMK AO1 SLP170 T01890156





000
SAUS44 KLCH 190954
MTRP92
METAR KP92 190953Z AUTO VRB04KT 19/16 A3003 RMK AO1 SLP170 T01890156





000
SAUS44 KLCH 190855
MTRP92
METAR KP92 190853Z AUTO 00000KT 19/16 A3003 RMK AO1 SLP169 T01940161
58000





000
SAUS44 KLCH 190755
MTRP92
METAR KP92 190753Z AUTO 00000KT 20/17 A3004 RMK AO1 SLP170 T02000172





000
SAUS44 KLCH 190655
MTRP92
METAR KP92 190653Z AUTO VRB04KT 21/17 A3004 RMK AO1 SLP170 T02110172





000
SAUS44 KLCH 190554
MTRP92
METAR KP92 190553Z AUTO VRB04KT 22/19 A3003 RMK AO1 SLP169 60001
T02170194 10250 20217 402780194 50003





000
SAUS44 KLCH 190454
MTRP92
METAR KP92 190453Z AUTO 36003KT 23/19 A3004 RMK AO1 SLP171 T02280194





000
SAUS44 KLCH 190454
MTRP92
METAR KP92 190453Z AUTO 36003KT 23/19 A3004 RMK AO1 SLP171 T02280194





000
SAUS44 KLCH 190354
MTRP92
METAR KP92 190353Z AUTO 04003KT 24/21 A3004 RMK AO1 SLP171 T02440206





000
SAUS44 KLCH 190354
MTRP92
METAR KP92 190353Z AUTO 04003KT 24/21 A3004 RMK AO1 SLP171 T02440206





000
SAUS44 KLCH 190254
MTRP92
METAR KP92 190253Z AUTO 00000KT 24/19 A3002 RMK AO1 SLP166 60001
T02390194 53015





000
SAUS44 KLCH 190154
MTRP92
METAR KP92 190153Z AUTO VRB03KT 24/19 A3000 RMK AO1 SLP159 T02390194





000
SAUS44 KLCH 190055
MTRP92
METAR KP92 190053Z AUTO 00000KT 24/19 A2999 RMK AO1 SLP154 P0001
T02440189





000
SAUS44 KLCH 182354
MTRP92
METAR KP92 182353Z AUTO 24003KT 25/19 A2998 RMK AO1 SLP151 T02500189
10278 20250 53002





000
SAUS44 KLCH 182255
MTRP92
METAR KP92 182253Z AUTO VRB03KT 26/19 A2997 RMK AO1 SLP150 T02610189





000
SAUS44 KLCH 182155
MTRP92
METAR KP92 182153Z AUTO VRB03KT 27/17 A2997 RMK AO1 SLP149 T02720172





000
SAUS44 KLCH 182155
MTRP92
METAR KP92 182153Z AUTO VRB03KT 27/17 A2997 RMK AO1 SLP149 T02720172





000
SAUS44 KLCH 182055
MTRP92
METAR KP92 182053Z AUTO 28005KT 27/17 A2997 RMK AO1 SLP149 T02720172
56016





000
SAUS44 KLCH 181954
MTRP92
METAR KP92 181953Z AUTO VRB04KT 28/18 A2998 RMK AO1 SLP151 T02780183





000
SAUS44 KLCH 181954
MTRP92
METAR KP92 181953Z AUTO VRB04KT 28/18 A2998 RMK AO1 SLP151 T02780183





000
SAUS44 KLCH 181854
MTRP92
METAR KP92 181853Z AUTO VRB04KT 27/18 A2999 RMK AO1 SLP156 T02720183





000
SAUS44 KLCH 181754
MTRP92
METAR KP92 181753Z AUTO VRB04KT 27/18 A3002 RMK AO1 SLP164 60001
T02670178 10272 20194 58007





000
SAUS44 KLCH 181655
MTRP92
METAR KP92 181653Z AUTO VRB05KT 27/17 A3004 RMK AO1 SLP171 T02720172





000
SAUS44 KLCH 181655
MTRP92
METAR KP92 181653Z AUTO VRB05KT 27/17 A3004 RMK AO1 SLP171 T02720172





000
SAUS44 KLCH 181554
MTRP92
METAR KP92 181553Z AUTO VRB03KT 26/17 A3004 RMK AO1 SLP173 P0001
T02560172





000
SAUS44 KLCH 181554
MTRP92
METAR KP92 181553Z AUTO VRB03KT 26/17 A3004 RMK AO1 SLP173 P0001
T02560172





000
SAUS44 KLCH 181454
MTRP92
METAR KP92 181453Z AUTO VRB03KT 26/18 A3004 RMK AO1 SLP171 T02560183
51011





000
SAUS44 KLCH 181454
MTRP92
METAR KP92 181453Z AUTO VRB03KT 26/18 A3004 RMK AO1 SLP171 T02560183
51011





000
SAUS44 KLCH 181354
MTRP92
METAR KP92 181353Z AUTO 00000KT 24/19 A3003 RMK AO1 SLP170 T02390189





000
SAUS44 KLCH 181255
MTRP92
METAR KP92 181253Z AUTO 00000KT 20/19 A3002 RMK AO1 SLP164 T02000189





000
SAUS44 KLCH 181155
MTRP92
METAR KP92 181153Z AUTO 00000KT 20/18 A3001 RMK AO1 SLP160 60001
70004 T02000178 10250 20194 51009





000
SAUS44 KLCH 181155
MTRP92
METAR KP92 181153Z AUTO 00000KT 20/18 A3001 RMK AO1 SLP160 60001
70004 T02000178 10250 20194 51009





000
SAUS44 KLCH 181054
MTRP92
METAR KP92 181053Z AUTO 00000KT 19/18 A3000 RMK AO1 SLP158 T01940178





000
SAUS44 KLCH 181054
MTRP92
METAR KP92 181053Z AUTO 00000KT 19/18 A3000 RMK AO1 SLP158 T01940178





000
SAUS44 KLCH 180955
MTRP92
METAR KP92 180953Z AUTO 00000KT 21/18 A2999 RMK AO1 SLP154 T02060183





000
SAUS44 KLCH 180955
MTRP92
METAR KP92 180953Z AUTO 00000KT 21/18 A2999 RMK AO1 SLP154 T02060183





000
SAUS44 KLCH 180855
MTRP92
METAR KP92 180853Z AUTO 00000KT 21/18 A2998 RMK AO1 SLP151 P0001
60001 T02060178 55000





000
SAUS44 KLCH 180755
MTRP92
METAR KP92 180753Z AUTO 00000KT 24/17 A2997 RMK AO1 SLP149 T02390172





000
SAUS44 KLCH 180755
MTRP92
METAR KP92 180753Z AUTO 00000KT 24/17 A2997 RMK AO1 SLP149 T02390172





000
SAUS44 KLCH 180655
MTRP92
METAR KP92 180653Z AUTO 00000KT 24/17 A2998 RMK AO1 SLP151 T02440172





000
SAUS44 KLCH 180554
MTRP92
METAR KP92 180553Z AUTO VRB03KT 24/18 A2998 RMK AO1 SLP151 60001
T02390178 10250 20222 402830211 58001





000
SAUS44 KLCH 180455
MTRP92
METAR KP92 180453Z AUTO 00000KT 23/18 A2999 RMK AO1 SLP153 T02280178





000
SAUS44 KLCH 180455
MTRP92
METAR KP92 180453Z AUTO 00000KT 23/18 A2999 RMK AO1 SLP153 T02280178





000
SAUS44 KLCH 180355
MTRP92
METAR KP92 180353Z AUTO 00000KT 23/18 A2998 RMK AO1 SLP153 T02280183





000
SAUS44 KLCH 180254
MTRP92
METAR KP92 180253Z AUTO VRB03KT 24/17 A2998 RMK AO1 SLP152 60001
T02440172 51008





    US Dept of Commerce
    National Oceanic and Atmospheric Administration
    National Weather Service
    1325 East West Highway
    Silver Spring, MD 20910
    Page Author: NWS Internet Services Team
Disclaimer
Information Quality
Credits
Glossary
Privacy Policy
Freedom of Information Act (FOIA)
About Us
Career Opportunities